createdAt,value
2022-08-28T00:00:41.087Z,17.21
2022-08-28T00:01:41.073Z,17.18
2022-08-28T00:02:41.143Z,17.22
2022-08-28T00:03:41.073Z,17.18
2022-08-28T00:04:41.100Z,17.15
2022-08-28T00:05:41.040Z,17.06
2022-08-28T00:06:41.020Z,17.14
2022-08-28T00:07:45.521Z,17.18
2022-08-28T00:08:42.019Z,17.18
2022-08-28T00:09:40.985Z,17.15
2022-08-28T00:10:40.978Z,17.11
2022-08-28T00:11:40.962Z,17.06
2022-08-28T00:12:40.951Z,17.12
2022-08-28T00:13:40.961Z,17.07
2022-08-28T00:14:40.932Z,17.01
2022-08-28T00:15:40.969Z,17.06
2022-08-28T00:16:40.907Z,17.08
2022-08-28T00:17:40.894Z,17.06
2022-08-28T00:18:41.133Z,17.07
2022-08-28T00:19:40.871Z,17.08
2022-08-28T00:20:40.860Z,17.03
2022-08-28T00:21:40.848Z,17.06
2022-08-28T00:22:41.152Z,17.03
2022-08-28T00:23:43.133Z,17.01
2022-08-28T00:24:40.817Z,17.04
2022-08-28T00:25:40.805Z,17.01
2022-08-28T00:26:40.817Z,16.98
2022-08-28T00:27:40.784Z,17.01
2022-08-28T00:28:40.773Z,16.94
2022-08-28T00:29:40.783Z,16.94
2022-08-28T00:30:40.768Z,16.93
2022-08-28T00:31:40.805Z,16.98
2022-08-28T00:32:40.728Z,17.00
2022-08-28T00:33:40.745Z,16.93
2022-08-28T00:34:40.731Z,16.97
2022-08-28T00:35:41.086Z,16.94
2022-08-28T00:36:40.682Z,17.01
2022-08-28T00:37:40.672Z,16.98
2022-08-28T00:38:40.678Z,17.00
2022-08-28T00:39:40.650Z,16.98
2022-08-28T00:40:40.706Z,16.98
2022-08-28T00:41:41.217Z,17.00
2022-08-28T00:42:40.617Z,17.00
2022-08-28T00:43:40.600Z,16.93
2022-08-28T00:44:40.593Z,16.97
2022-08-28T00:45:40.602Z,16.85
2022-08-28T00:46:40.624Z,16.96
2022-08-28T00:47:40.559Z,16.91
2022-08-28T00:48:40.576Z,16.88
2022-08-28T00:49:40.535Z,16.82
2022-08-28T00:50:40.525Z,16.98
2022-08-28T00:51:40.513Z,16.93
2022-08-28T00:52:40.502Z,16.93
2022-08-28T00:53:40.489Z,16.91
2022-08-28T00:54:40.502Z,16.89
2022-08-28T00:55:40.473Z,16.86
2022-08-28T00:56:40.464Z,16.89
2022-08-28T00:57:40.509Z,16.85
2022-08-28T00:58:40.434Z,16.89
2022-08-28T00:59:40.444Z,16.93
2022-08-28T01:00:40.417Z,17.01
2022-08-28T01:01:40.416Z,16.94
2022-08-28T01:02:40.423Z,16.93
2022-08-28T01:03:40.413Z,16.89
2022-08-28T01:04:40.384Z,16.91
2022-08-28T01:05:40.378Z,16.89
2022-08-28T01:06:40.341Z,16.91
2022-08-28T01:07:40.338Z,16.88
2022-08-28T01:08:40.344Z,16.93
2022-08-28T01:09:40.310Z,16.91
2022-08-28T01:10:40.300Z,16.91
2022-08-28T01:11:40.309Z,16.82
2022-08-28T01:12:40.286Z,16.85
2022-08-28T01:13:40.270Z,16.93
2022-08-28T01:14:40.262Z,16.93
2022-08-28T01:15:40.275Z,16.93
2022-08-28T01:16:40.279Z,16.89
2022-08-28T01:17:40.222Z,16.79
2022-08-28T01:18:40.209Z,16.86
2022-08-28T01:19:40.197Z,16.91
2022-08-28T01:20:40.191Z,16.91
2022-08-28T01:21:40.376Z,16.91
2022-08-28T01:22:40.371Z,16.88
2022-08-28T01:23:40.156Z,16.91
2022-08-28T01:24:40.148Z,16.91
2022-08-28T01:25:40.135Z,16.88
2022-08-28T01:26:40.118Z,16.82
2022-08-28T01:27:40.403Z,16.89
2022-08-28T01:28:40.129Z,16.98
2022-08-28T01:29:40.094Z,16.91
2022-08-28T01:30:40.075Z,16.94
2022-08-28T01:31:40.153Z,16.97
2022-08-28T01:32:40.077Z,16.88
2022-08-28T01:33:42.350Z,16.91
2022-08-28T01:34:40.029Z,16.88
2022-08-28T01:35:40.025Z,16.94
2022-08-28T01:36:40.005Z,16.93
2022-08-28T01:37:40.016Z,16.89
2022-08-28T01:38:39.984Z,16.89
2022-08-28T01:39:39.973Z,16.88
2022-08-28T01:40:40.081Z,16.93
2022-08-28T01:41:39.975Z,16.82
2022-08-28T01:42:39.939Z,16.86
2022-08-28T01:43:39.952Z,16.89
2022-08-28T01:44:39.917Z,16.82
2022-08-28T01:45:39.909Z,16.82
2022-08-28T01:46:39.973Z,16.85
2022-08-28T01:47:39.891Z,16.82
2022-08-28T01:48:39.909Z,16.85
2022-08-28T01:49:39.878Z,16.79
2022-08-28T01:50:39.848Z,16.83
2022-08-28T01:51:39.838Z,16.79
2022-08-28T01:52:39.826Z,16.83
2022-08-28T01:53:39.843Z,16.81
2022-08-28T01:54:39.803Z,16.86
2022-08-28T01:55:39.792Z,16.86
2022-08-28T01:56:39.785Z,16.85
2022-08-28T01:57:39.773Z,16.89
2022-08-28T01:58:39.780Z,16.83
2022-08-28T01:59:39.754Z,16.86
2022-08-28T02:00:39.741Z,16.86
2022-08-28T02:01:39.769Z,16.82
2022-08-28T02:02:39.721Z,16.82
2022-08-28T02:03:39.727Z,16.86
2022-08-28T02:04:39.720Z,16.88
2022-08-28T02:05:39.679Z,16.81
2022-08-28T02:06:39.668Z,16.83
2022-08-28T02:07:39.663Z,16.83
2022-08-28T02:08:39.665Z,16.83
2022-08-28T02:09:39.636Z,16.81
2022-08-28T02:10:39.627Z,16.83
2022-08-28T02:11:39.635Z,16.94
2022-08-28T02:12:39.599Z,16.83
2022-08-28T02:13:39.624Z,16.81
2022-08-28T02:14:39.584Z,16.85
2022-08-28T02:15:39.603Z,16.81
2022-08-28T02:16:39.564Z,16.88
2022-08-28T02:17:39.549Z,16.81
2022-08-28T02:18:39.535Z,16.86
2022-08-28T02:19:39.547Z,16.82
2022-08-28T02:20:39.529Z,16.85
2022-08-28T02:21:39.499Z,16.79
2022-08-28T02:22:39.487Z,16.76
2022-08-28T02:23:39.509Z,16.78
2022-08-28T02:24:39.490Z,16.85
2022-08-28T02:25:39.457Z,16.83
2022-08-28T02:26:39.442Z,16.76
2022-08-28T02:27:39.436Z,16.81
2022-08-28T02:28:39.420Z,16.78
2022-08-28T02:29:39.434Z,16.86
2022-08-28T02:30:39.455Z,16.78
2022-08-28T02:31:39.390Z,16.76
2022-08-28T02:32:39.391Z,16.78
2022-08-28T02:33:39.390Z,16.73
2022-08-28T02:34:39.353Z,16.81
2022-08-28T02:35:39.344Z,16.75
2022-08-28T02:36:39.331Z,16.78
2022-08-28T02:37:39.319Z,16.78
2022-08-28T02:38:39.313Z,16.70
2022-08-28T02:39:39.338Z,16.78
2022-08-28T02:40:39.371Z,16.70
2022-08-28T02:41:39.315Z,16.75
2022-08-28T02:42:39.262Z,16.81
2022-08-28T02:43:39.251Z,16.61
2022-08-28T02:44:39.342Z,16.63
2022-08-28T02:45:39.255Z,16.66
2022-08-28T02:46:39.254Z,16.60
2022-08-28T02:47:39.213Z,16.46
2022-08-28T02:48:39.197Z,16.50
2022-08-28T02:49:39.207Z,16.45
2022-08-28T02:50:39.170Z,16.46
2022-08-28T02:51:39.162Z,16.41
2022-08-28T02:52:40.425Z,16.38
2022-08-28T02:53:39.139Z,16.31
2022-08-28T02:54:39.147Z,16.31
2022-08-28T02:55:39.133Z,16.23
2022-08-28T02:56:39.185Z,16.20
2022-08-28T02:57:39.102Z,16.15
2022-08-28T02:58:39.085Z,16.15
2022-08-28T02:59:39.074Z,16.14
2022-08-28T03:00:39.081Z,16.05
2022-08-28T03:01:39.077Z,16.04
2022-08-28T03:02:39.082Z,15.97
2022-08-28T03:03:39.025Z,16.02
2022-08-28T03:04:39.015Z,15.96
2022-08-28T03:05:39.024Z,16.00
2022-08-28T03:06:39.012Z,15.93
2022-08-28T03:07:38.985Z,15.87
2022-08-28T03:08:38.968Z,15.87
2022-08-28T03:09:38.957Z,15.93
2022-08-28T03:10:38.967Z,15.83
2022-08-28T03:11:38.935Z,15.80
2022-08-28T03:12:38.924Z,15.78
2022-08-28T03:13:38.913Z,15.74
2022-08-28T03:14:38.903Z,15.75
2022-08-28T03:15:38.925Z,15.74
2022-08-28T03:16:38.955Z,15.75
2022-08-28T03:17:38.874Z,15.68
2022-08-28T03:18:38.856Z,15.72
2022-08-28T03:19:38.847Z,15.72
2022-08-28T03:20:38.874Z,15.62
2022-08-28T03:21:38.825Z,15.75
2022-08-28T03:22:38.818Z,15.68
2022-08-28T03:23:38.801Z,15.64
2022-08-28T03:24:38.793Z,15.68
2022-08-28T03:25:38.802Z,15.67
2022-08-28T03:26:38.765Z,15.60
2022-08-28T03:27:38.758Z,15.54
2022-08-28T03:28:38.743Z,15.60
2022-08-28T03:29:38.744Z,15.60
2022-08-28T03:30:38.798Z,15.53
2022-08-28T03:31:38.960Z,15.59
2022-08-28T03:32:38.697Z,15.49
2022-08-28T03:33:41.945Z,15.53
2022-08-28T03:34:38.675Z,15.49
2022-08-28T03:35:38.669Z,15.54
2022-08-28T03:36:38.676Z,15.57
2022-08-28T03:37:38.669Z,15.53
2022-08-28T03:38:38.636Z,15.50
2022-08-28T03:39:38.627Z,15.46
2022-08-28T03:40:38.647Z,15.38
2022-08-28T03:41:38.669Z,15.39
2022-08-28T03:42:38.584Z,15.39
2022-08-28T03:43:38.574Z,15.32
2022-08-28T03:44:38.564Z,15.41
2022-08-28T03:45:38.621Z,15.34
2022-08-28T03:46:38.579Z,15.31
2022-08-28T03:47:38.552Z,15.41
2022-08-28T03:48:38.537Z,15.38
2022-08-28T03:49:38.510Z,15.29
2022-08-28T03:50:38.494Z,15.28
2022-08-28T03:51:38.512Z,15.27
2022-08-28T03:52:38.520Z,15.13
2022-08-28T03:53:38.467Z,15.28
2022-08-28T03:54:38.473Z,15.29
2022-08-28T03:55:38.440Z,15.17
2022-08-28T03:56:38.428Z,15.21
2022-08-28T03:57:38.419Z,15.17
2022-08-28T03:58:38.407Z,15.20
2022-08-28T03:59:38.394Z,15.10
2022-08-28T04:00:38.400Z,15.07
2022-08-28T04:01:38.465Z,15.21
2022-08-28T04:02:38.376Z,15.14
2022-08-28T04:03:38.408Z,15.17
2022-08-28T04:04:38.334Z,15.10
2022-08-28T04:05:38.348Z,15.10
2022-08-28T04:06:38.318Z,15.06
2022-08-28T04:07:38.326Z,15.01
2022-08-28T04:08:38.347Z,14.86
2022-08-28T04:09:38.280Z,14.94
2022-08-28T04:10:38.267Z,14.91
2022-08-28T04:11:38.261Z,14.88
2022-08-28T04:12:38.266Z,14.86
2022-08-28T04:13:38.254Z,14.86
2022-08-28T04:14:38.226Z,14.78
2022-08-28T04:15:38.214Z,14.86
2022-08-28T04:16:38.207Z,14.86
2022-08-28T04:17:38.192Z,14.78
2022-08-28T04:18:38.202Z,14.78
2022-08-28T04:19:38.198Z,14.70
2022-08-28T04:20:38.156Z,14.77
2022-08-28T04:21:38.146Z,14.72
2022-08-28T04:22:38.129Z,14.73
2022-08-28T04:23:38.121Z,14.64
2022-08-28T04:24:38.127Z,14.62
2022-08-28T04:25:38.101Z,14.73
2022-08-28T04:26:38.089Z,14.68
2022-08-28T04:27:38.084Z,14.62
2022-08-28T04:28:38.062Z,14.64
2022-08-28T04:29:38.073Z,14.65
2022-08-28T04:30:38.039Z,14.69
2022-08-28T04:31:38.081Z,14.65
2022-08-28T04:32:38.041Z,14.60
2022-08-28T04:33:38.006Z,14.68
2022-08-28T04:34:38.020Z,14.58
2022-08-28T04:35:37.984Z,14.68
2022-08-28T04:36:37.979Z,14.61
2022-08-28T04:37:37.961Z,14.61
2022-08-28T04:38:42.989Z,14.50
2022-08-28T04:39:38.960Z,14.51
2022-08-28T04:40:37.960Z,14.55
2022-08-28T04:41:37.917Z,14.50
2022-08-28T04:42:37.916Z,14.52
2022-08-28T04:43:37.914Z,14.46
2022-08-28T04:44:37.881Z,14.55
2022-08-28T04:45:37.922Z,14.47
2022-08-28T04:46:37.880Z,14.45
2022-08-28T04:47:37.895Z,14.37
2022-08-28T04:48:37.870Z,14.37
2022-08-28T04:49:37.831Z,14.37
2022-08-28T04:50:37.844Z,14.42
2022-08-28T04:51:41.890Z,14.33
2022-08-28T04:52:37.792Z,14.37
2022-08-28T04:53:37.781Z,14.39
2022-08-28T04:54:37.797Z,14.36
2022-08-28T04:55:53.603Z,14.40
2022-08-28T04:56:38.743Z,14.32
2022-08-28T04:57:37.735Z,14.35
2022-08-28T04:58:37.725Z,14.35
2022-08-28T04:59:37.733Z,14.37
2022-08-28T05:00:38.521Z,14.37
2022-08-28T05:01:37.689Z,14.40
2022-08-28T05:02:37.690Z,14.35
2022-08-28T05:03:37.671Z,14.37
2022-08-28T05:04:37.654Z,14.25
2022-08-28T05:05:37.663Z,14.25
2022-08-28T05:06:37.659Z,14.37
2022-08-28T05:07:37.621Z,14.42
2022-08-28T05:08:37.609Z,14.42
2022-08-28T05:09:37.598Z,14.45
2022-08-28T05:10:37.611Z,14.43
2022-08-28T05:11:37.575Z,14.51
2022-08-28T05:12:37.563Z,14.50
2022-08-28T05:13:37.552Z,14.46
2022-08-28T05:14:37.571Z,14.47
2022-08-28T05:15:37.534Z,14.60
2022-08-28T05:16:37.566Z,14.62
2022-08-28T05:17:37.506Z,14.65
2022-08-28T05:18:37.516Z,14.68
2022-08-28T05:19:37.484Z,14.64
2022-08-28T05:20:37.472Z,14.72
2022-08-28T05:21:37.479Z,14.81
2022-08-28T05:22:37.451Z,14.80
2022-08-28T05:23:37.460Z,14.89
2022-08-28T05:24:37.428Z,14.94
2022-08-28T05:25:37.419Z,14.92
2022-08-28T05:26:38.782Z,15.03
2022-08-28T05:27:37.394Z,15.07
2022-08-28T05:28:37.408Z,15.09
2022-08-28T05:29:37.392Z,15.20
2022-08-28T05:30:37.362Z,15.23
2022-08-28T05:31:37.383Z,15.17
2022-08-28T05:32:37.339Z,15.29
2022-08-28T05:33:37.326Z,15.23
2022-08-28T05:34:37.333Z,15.28
2022-08-28T05:35:37.301Z,15.27
2022-08-28T05:36:37.314Z,15.29
2022-08-28T05:37:37.279Z,15.32
2022-08-28T05:38:37.269Z,15.35
2022-08-28T05:39:37.256Z,15.32
2022-08-28T05:40:37.296Z,15.34
2022-08-28T05:41:37.258Z,15.36
2022-08-28T05:42:39.083Z,15.31
2022-08-28T05:43:37.210Z,15.29
2022-08-28T05:44:37.381Z,15.36
2022-08-28T05:45:37.300Z,15.41
2022-08-28T05:46:37.397Z,15.49
2022-08-28T05:47:37.167Z,15.49
2022-08-28T05:48:39.070Z,15.57
2022-08-28T05:49:37.163Z,15.56
2022-08-28T05:50:37.132Z,15.51
2022-08-28T05:51:37.125Z,15.54
2022-08-28T05:52:37.131Z,15.64
2022-08-28T05:53:37.098Z,15.56
2022-08-28T05:54:37.422Z,15.67
2022-08-28T05:55:37.077Z,15.67
2022-08-28T05:56:37.065Z,15.67
2022-08-28T05:57:37.059Z,15.64
2022-08-28T05:58:37.063Z,15.64
2022-08-28T05:59:37.035Z,15.65
2022-08-28T06:00:37.025Z,15.78
2022-08-28T06:01:37.119Z,15.80
2022-08-28T06:02:36.997Z,15.93
2022-08-28T06:03:37.067Z,15.96
2022-08-28T06:04:37.083Z,16.14
2022-08-28T06:05:36.972Z,16.15
2022-08-28T06:06:36.972Z,16.20
2022-08-28T06:07:36.957Z,16.24
2022-08-28T06:08:36.935Z,16.20
2022-08-28T06:09:36.940Z,16.23
2022-08-28T06:10:36.915Z,16.27
2022-08-28T06:11:36.896Z,16.31
2022-08-28T06:12:36.892Z,16.34
2022-08-28T06:13:36.895Z,16.31
2022-08-28T06:14:36.895Z,16.41
2022-08-28T06:15:36.852Z,16.50
2022-08-28T06:16:36.884Z,16.49
2022-08-28T06:17:36.854Z,16.42
2022-08-28T06:18:36.816Z,16.46
2022-08-28T06:19:40.731Z,16.50
2022-08-28T06:20:36.798Z,16.63
2022-08-28T06:21:36.789Z,16.61
2022-08-28T06:22:36.772Z,16.76
2022-08-28T06:23:36.762Z,16.78
2022-08-28T06:24:36.779Z,16.75
2022-08-28T06:25:36.746Z,16.78
2022-08-28T06:26:36.755Z,16.66
2022-08-28T06:27:36.741Z,16.71
2022-08-28T06:28:36.720Z,16.70
2022-08-28T06:29:36.690Z,16.85
2022-08-28T06:30:36.689Z,16.91
2022-08-28T06:31:36.756Z,16.83
2022-08-28T06:32:36.665Z,16.93
2022-08-28T06:33:36.666Z,16.85
2022-08-28T06:34:36.673Z,16.70
2022-08-28T06:35:36.630Z,16.71
2022-08-28T06:36:36.617Z,16.78
2022-08-28T06:37:36.600Z,16.88
2022-08-28T06:38:36.601Z,16.86
2022-08-28T06:39:36.607Z,16.85
2022-08-28T06:40:36.671Z,17.11
2022-08-28T06:41:36.633Z,17.14
2022-08-28T06:42:36.567Z,17.19
2022-08-28T06:43:36.535Z,17.22
2022-08-28T06:44:36.555Z,17.22
2022-08-28T06:45:36.587Z,17.40
2022-08-28T06:46:36.630Z,17.62
2022-08-28T06:47:36.497Z,17.54
2022-08-28T06:48:36.492Z,17.37
2022-08-28T06:49:36.489Z,17.43
2022-08-28T06:50:36.456Z,17.21
2022-08-28T06:51:36.447Z,17.28
2022-08-28T06:52:36.435Z,17.31
2022-08-28T06:53:36.420Z,17.26
2022-08-28T06:54:36.437Z,17.28
2022-08-28T06:55:36.396Z,17.41
2022-08-28T06:56:36.388Z,17.46
2022-08-28T06:57:36.374Z,17.41
2022-08-28T06:58:36.435Z,17.30
2022-08-28T06:59:36.457Z,17.40
2022-08-28T07:00:36.345Z,17.37
2022-08-28T07:01:36.496Z,17.34
2022-08-28T07:02:36.388Z,17.48
2022-08-28T07:03:36.306Z,17.46
2022-08-28T07:04:37.316Z,17.62
2022-08-28T07:05:36.283Z,17.70
2022-08-28T07:06:36.273Z,17.56
2022-08-28T07:07:36.262Z,17.58
2022-08-28T07:08:36.253Z,17.51
2022-08-28T07:09:36.261Z,17.43
2022-08-28T07:10:36.228Z,17.54
2022-08-28T07:11:36.216Z,17.74
2022-08-28T07:12:36.208Z,17.86
2022-08-28T07:13:36.193Z,17.87
2022-08-28T07:14:36.206Z,17.99
2022-08-28T07:15:36.218Z,17.99
2022-08-28T07:16:37.176Z,17.99
2022-08-28T07:17:36.158Z,17.92
2022-08-28T07:18:36.137Z,17.90
2022-08-28T07:19:36.126Z,17.87
2022-08-28T07:20:36.138Z,18.17
2022-08-28T07:21:38.808Z,18.36
2022-08-28T07:22:36.094Z,18.45
2022-08-28T07:23:36.083Z,18.54
2022-08-28T07:24:36.076Z,18.51
2022-08-28T07:25:36.080Z,18.58
2022-08-28T07:26:36.047Z,18.50
2022-08-28T07:27:36.035Z,18.36
2022-08-28T07:28:36.027Z,18.48
2022-08-28T07:29:36.011Z,18.54
2022-08-28T07:30:36.021Z,18.45
2022-08-28T07:31:36.068Z,18.37
2022-08-28T07:32:35.980Z,18.42
2022-08-28T07:33:35.974Z,18.60
2022-08-28T07:34:35.982Z,18.81
2022-08-28T07:35:35.968Z,18.98
2022-08-28T07:36:35.956Z,19.21
2022-08-28T07:37:35.952Z,19.36
2022-08-28T07:38:35.911Z,19.26
2022-08-28T07:39:35.912Z,19.26
2022-08-28T07:40:35.964Z,19.51
2022-08-28T07:41:35.896Z,19.33
2022-08-28T07:42:35.912Z,19.29
2022-08-28T07:43:35.853Z,19.28
2022-08-28T07:44:35.844Z,19.39
2022-08-28T07:45:35.945Z,19.41
2022-08-28T07:46:35.846Z,19.47
2022-08-28T07:47:35.809Z,19.56
2022-08-28T07:48:35.803Z,19.69
2022-08-28T07:49:35.799Z,19.31
2022-08-28T07:50:35.798Z,19.16
2022-08-28T07:51:35.769Z,19.02
2022-08-28T07:52:35.754Z,18.78
2022-08-28T07:53:36.665Z,18.63
2022-08-28T07:54:35.751Z,18.76
2022-08-28T07:55:35.739Z,18.75
2022-08-28T07:56:35.719Z,18.52
2022-08-28T07:57:35.714Z,18.51
2022-08-28T07:58:39.202Z,18.55
2022-08-28T07:59:37.008Z,18.48
2022-08-28T08:00:35.668Z,18.37
2022-08-28T08:01:35.681Z,18.50
2022-08-28T08:02:35.645Z,18.58
2022-08-28T08:03:35.901Z,18.63
2022-08-28T08:04:35.641Z,18.75
2022-08-28T08:05:35.607Z,18.67
2022-08-28T08:06:35.596Z,18.94
2022-08-28T08:07:35.608Z,19.19
2022-08-28T08:08:35.579Z,19.26
2022-08-28T08:09:35.571Z,19.26
2022-08-28T08:10:35.556Z,19.11
2022-08-28T08:11:35.565Z,19.13
2022-08-28T08:12:37.519Z,19.08
2022-08-28T08:13:35.538Z,19.10
2022-08-28T08:14:35.740Z,19.14
2022-08-28T08:15:35.547Z,19.22
2022-08-28T08:16:35.689Z,19.32
2022-08-28T08:17:35.616Z,19.33
2022-08-28T08:18:35.488Z,19.33
2022-08-28T08:19:35.739Z,19.56
2022-08-28T08:20:35.467Z,19.48
2022-08-28T08:21:35.430Z,19.26
2022-08-28T08:22:35.502Z,19.08
2022-08-28T08:23:35.486Z,18.91
2022-08-28T08:24:35.787Z,18.72
2022-08-28T08:25:35.384Z,18.55
2022-08-28T08:26:35.372Z,18.57
2022-08-28T08:27:38.773Z,18.57
2022-08-28T08:28:36.352Z,18.60
2022-08-28T08:29:35.360Z,18.58
2022-08-28T08:30:35.331Z,18.80
2022-08-28T08:31:35.497Z,19.02
2022-08-28T08:32:35.305Z,19.23
2022-08-28T08:33:35.298Z,19.66
2022-08-28T08:34:35.473Z,19.95
2022-08-28T08:35:35.278Z,20.02
2022-08-28T08:36:35.265Z,20.18
2022-08-28T08:37:35.294Z,20.21
2022-08-28T08:38:35.253Z,20.29
2022-08-28T08:39:35.228Z,20.28
2022-08-28T08:40:35.271Z,20.20
2022-08-28T08:41:35.207Z,20.14
2022-08-28T08:42:35.215Z,20.03
2022-08-28T08:43:35.211Z,19.95
2022-08-28T08:44:37.107Z,19.94
2022-08-28T08:45:35.159Z,20.05
2022-08-28T08:46:35.217Z,20.13
2022-08-28T08:47:35.163Z,19.94
2022-08-28T08:48:35.134Z,19.95
2022-08-28T08:49:35.679Z,19.68
2022-08-28T08:50:35.107Z,19.76
2022-08-28T08:51:35.170Z,19.65
2022-08-28T08:52:35.104Z,19.68
2022-08-28T08:53:35.072Z,19.58
2022-08-28T08:54:35.060Z,19.55
2022-08-28T08:55:35.094Z,19.55
2022-08-28T08:56:35.677Z,19.54
2022-08-28T08:57:35.060Z,19.66
2022-08-28T08:58:35.033Z,19.68
2022-08-28T08:59:35.018Z,19.58
2022-08-28T09:00:34.992Z,19.51
2022-08-28T09:01:35.058Z,19.51
2022-08-28T09:02:34.991Z,19.51
2022-08-28T09:03:35.087Z,19.28
2022-08-28T09:04:34.948Z,19.47
2022-08-28T09:05:34.935Z,19.58
2022-08-28T09:06:34.924Z,19.68
2022-08-28T09:07:34.911Z,19.78
2022-08-28T09:08:34.926Z,19.91
2022-08-28T09:09:34.892Z,19.73
2022-08-28T09:10:34.879Z,19.86
2022-08-28T09:11:34.868Z,19.84
2022-08-28T09:12:34.879Z,20.08
2022-08-28T09:13:34.847Z,20.43
2022-08-28T09:14:34.853Z,20.54
2022-08-28T09:15:34.859Z,20.70
2022-08-28T09:16:34.833Z,20.54
2022-08-28T09:17:34.798Z,20.06
2022-08-28T09:18:34.788Z,20.02
2022-08-28T09:19:34.775Z,19.81
2022-08-28T09:20:34.769Z,19.81
2022-08-28T09:21:34.783Z,19.98
2022-08-28T09:22:34.744Z,19.94
2022-08-28T09:23:34.729Z,19.86
2022-08-28T09:24:34.720Z,19.87
2022-08-28T09:25:34.707Z,19.96
2022-08-28T09:26:34.718Z,19.98
2022-08-28T09:27:34.695Z,20.02
2022-08-28T09:28:34.695Z,20.24
2022-08-28T09:29:34.683Z,20.31
2022-08-28T09:30:34.655Z,20.26
2022-08-28T09:31:34.665Z,20.11
2022-08-28T09:32:34.631Z,20.36
2022-08-28T09:33:34.622Z,20.43
2022-08-28T09:34:38.775Z,20.42
2022-08-28T09:35:34.599Z,20.47
2022-08-28T09:36:34.584Z,20.70
2022-08-28T09:37:34.587Z,20.77
2022-08-28T09:38:34.561Z,20.58
2022-08-28T09:39:34.569Z,20.14
2022-08-28T09:40:34.627Z,20.18
2022-08-28T09:41:34.526Z,20.16
2022-08-28T09:42:34.515Z,20.21
2022-08-28T09:43:34.504Z,20.02
2022-08-28T09:44:34.514Z,20.16
2022-08-28T09:45:34.487Z,20.13
2022-08-28T09:46:34.498Z,20.18
2022-08-28T09:47:34.460Z,20.17
2022-08-28T09:48:34.452Z,20.26
2022-08-28T09:49:34.460Z,20.11
2022-08-28T09:50:34.446Z,20.08
2022-08-28T09:51:34.414Z,20.02
2022-08-28T09:52:34.425Z,20.16
2022-08-28T09:53:34.391Z,20.23
2022-08-28T09:54:34.379Z,20.28
2022-08-28T09:55:34.372Z,20.14
2022-08-28T09:56:34.379Z,20.13
2022-08-28T09:57:34.348Z,20.06
2022-08-28T09:58:34.336Z,20.10
2022-08-28T09:59:34.328Z,20.08
2022-08-28T10:00:34.331Z,20.29
2022-08-28T10:01:34.342Z,20.50
2022-08-28T10:02:34.289Z,20.70
2022-08-28T10:03:34.300Z,20.84
2022-08-28T10:04:34.298Z,20.99
2022-08-28T10:05:34.256Z,21.09
2022-08-28T10:06:34.244Z,20.92
2022-08-28T10:07:34.234Z,20.87
2022-08-28T10:08:34.221Z,20.97
2022-08-28T10:09:34.359Z,21.22
2022-08-28T10:10:34.217Z,21.49
2022-08-28T10:11:34.215Z,21.86
2022-08-28T10:12:34.175Z,21.82
2022-08-28T10:13:34.166Z,21.94
2022-08-28T10:14:34.174Z,22.17
2022-08-28T10:15:34.166Z,22.17
2022-08-28T10:16:34.135Z,21.88
2022-08-28T10:17:34.121Z,21.64
2022-08-28T10:18:34.343Z,21.75
2022-08-28T10:19:34.098Z,21.40
2022-08-28T10:20:34.086Z,21.22
2022-08-28T10:21:34.079Z,21.47
2022-08-28T10:22:34.064Z,21.64
2022-08-28T10:23:34.075Z,21.49
2022-08-28T10:24:34.396Z,21.37
2022-08-28T10:25:34.033Z,21.43
2022-08-28T10:26:34.021Z,21.64
2022-08-28T10:27:34.012Z,21.58
2022-08-28T10:28:34.001Z,21.62
2022-08-28T10:29:33.989Z,21.74
2022-08-28T10:30:34.002Z,21.64
2022-08-28T10:31:34.086Z,21.79
2022-08-28T10:32:33.954Z,21.91
2022-08-28T10:33:33.946Z,21.98
2022-08-28T10:34:33.957Z,22.15
2022-08-28T10:35:33.923Z,22.10
2022-08-28T10:36:35.135Z,22.20
2022-08-28T10:37:33.899Z,22.37
2022-08-28T10:38:33.908Z,22.64
2022-08-28T10:39:33.880Z,22.67
2022-08-28T10:40:33.916Z,22.72
2022-08-28T10:41:33.855Z,22.72
2022-08-28T10:42:35.916Z,22.60
2022-08-28T10:43:33.859Z,22.55
2022-08-28T10:44:33.820Z,22.65
2022-08-28T10:45:33.809Z,22.68
2022-08-28T10:46:33.866Z,22.83
2022-08-28T10:47:33.808Z,23.17
2022-08-28T10:48:33.776Z,23.36
2022-08-28T10:49:33.767Z,23.16
2022-08-28T10:50:33.753Z,22.64
2022-08-28T10:51:35.479Z,22.49
2022-08-28T10:52:33.760Z,22.18
2022-08-28T10:53:33.724Z,22.20
2022-08-28T10:54:33.730Z,22.06
2022-08-28T10:55:33.700Z,21.94
2022-08-28T10:56:33.689Z,21.80
2022-08-28T10:57:38.684Z,21.65
2022-08-28T10:58:34.699Z,21.47
2022-08-28T10:59:33.655Z,21.44
2022-08-28T11:00:34.641Z,21.59
2022-08-28T11:01:33.702Z,21.62
2022-08-28T11:02:33.699Z,21.65
2022-08-28T11:03:35.060Z,21.75
2022-08-28T11:04:33.594Z,21.65
2022-08-28T11:05:33.588Z,21.50
2022-08-28T11:06:33.573Z,21.54
2022-08-28T11:07:33.585Z,21.31
2022-08-28T11:08:33.553Z,21.27
2022-08-28T11:09:33.542Z,21.42
2022-08-28T11:10:33.550Z,21.53
2022-08-28T11:11:33.545Z,21.53
2022-08-28T11:12:33.512Z,21.65
2022-08-28T11:13:33.499Z,21.80
2022-08-28T11:14:33.509Z,22.02
2022-08-28T11:15:37.071Z,22.18
2022-08-28T11:16:33.546Z,22.28
2022-08-28T11:17:33.451Z,22.31
2022-08-28T11:18:33.439Z,22.25
2022-08-28T11:19:33.450Z,22.25
2022-08-28T11:20:33.417Z,22.43
2022-08-28T11:21:33.406Z,22.55
2022-08-28T11:22:33.412Z,22.70
2022-08-28T11:23:33.383Z,22.86
2022-08-28T11:24:33.391Z,23.04
2022-08-28T11:25:33.367Z,23.12
2022-08-28T11:26:33.348Z,23.22
2022-08-28T11:27:33.359Z,23.36
2022-08-28T11:28:33.328Z,23.43
2022-08-28T11:29:33.317Z,23.53
2022-08-28T11:30:33.413Z,23.54
2022-08-28T11:31:33.377Z,23.69
2022-08-28T11:32:33.461Z,23.70
2022-08-28T11:33:33.273Z,23.87
2022-08-28T11:34:33.265Z,23.78
2022-08-28T11:35:33.278Z,23.90
2022-08-28T11:36:33.246Z,23.94
2022-08-28T11:37:33.229Z,23.80
2022-08-28T11:38:33.220Z,23.75
2022-08-28T11:39:33.208Z,23.76
2022-08-28T11:40:33.313Z,23.69
2022-08-28T11:41:33.213Z,23.38
2022-08-28T11:42:33.173Z,23.13
2022-08-28T11:43:33.164Z,22.98
2022-08-28T11:44:33.172Z,23.07
2022-08-28T11:45:33.142Z,22.90
2022-08-28T11:46:33.274Z,22.82
2022-08-28T11:47:33.123Z,22.80
2022-08-28T11:48:33.106Z,22.83
2022-08-28T11:49:33.096Z,22.86
2022-08-28T11:50:33.086Z,22.82
2022-08-28T11:51:33.078Z,22.83
2022-08-28T11:52:33.086Z,22.82
2022-08-28T11:53:33.055Z,22.73
2022-08-28T11:54:33.041Z,22.64
2022-08-28T11:55:33.032Z,22.76
2022-08-28T11:56:33.019Z,22.47
2022-08-28T11:57:33.033Z,22.36
2022-08-28T11:58:33.016Z,22.57
2022-08-28T11:59:35.481Z,22.64
2022-08-28T12:00:32.974Z,22.70
2022-08-28T12:01:32.967Z,22.68
2022-08-28T12:02:33.021Z,22.70
2022-08-28T12:03:32.941Z,22.76
2022-08-28T12:04:32.962Z,22.83
2022-08-28T12:05:32.920Z,22.85
2022-08-28T12:06:32.907Z,23.01
2022-08-28T12:07:32.916Z,23.00
2022-08-28T12:08:32.908Z,23.13
2022-08-28T12:09:32.875Z,22.91
2022-08-28T12:10:32.865Z,22.94
2022-08-28T12:11:32.853Z,22.88
2022-08-28T12:12:32.840Z,22.91
2022-08-28T12:13:32.850Z,23.01
2022-08-28T12:14:32.818Z,23.09
2022-08-28T12:15:32.811Z,23.10
2022-08-28T12:16:32.796Z,22.88
2022-08-28T12:17:32.791Z,22.80
2022-08-28T12:18:32.797Z,22.83
2022-08-28T12:19:32.765Z,22.90
2022-08-28T12:20:32.753Z,22.64
2022-08-28T12:21:32.743Z,22.64
2022-08-28T12:22:32.732Z,22.90
2022-08-28T12:23:32.723Z,22.98
2022-08-28T12:24:32.727Z,22.91
2022-08-28T12:25:32.701Z,23.01
2022-08-28T12:26:32.691Z,22.88
2022-08-28T12:27:32.677Z,22.88
2022-08-28T12:28:32.668Z,22.97
2022-08-28T12:29:32.737Z,23.05
2022-08-28T12:30:32.699Z,23.13
2022-08-28T12:31:32.638Z,23.10
2022-08-28T12:32:32.621Z,22.92
2022-08-28T12:33:32.612Z,22.92
2022-08-28T12:34:32.619Z,22.83
2022-08-28T12:35:32.588Z,22.77
2022-08-28T12:36:32.664Z,22.75
2022-08-28T12:37:50.960Z,22.67
2022-08-28T12:38:33.553Z,22.54
2022-08-28T12:39:32.563Z,22.68
2022-08-28T12:40:32.616Z,22.68
2022-08-28T12:41:32.522Z,22.64
2022-08-28T12:42:32.518Z,22.67
2022-08-28T12:43:32.499Z,22.67
2022-08-28T12:44:32.515Z,22.64
2022-08-28T12:45:32.475Z,22.62
2022-08-28T12:46:32.505Z,22.52
2022-08-28T12:47:32.451Z,22.46
2022-08-28T12:48:32.439Z,22.49
2022-08-28T12:49:32.429Z,22.52
2022-08-28T12:50:32.438Z,22.52
2022-08-28T12:51:32.408Z,22.65
2022-08-28T12:52:32.392Z,22.62